Sault Ste. Marie, MI

03:10 PM EDT del 03 Settembre 2015 (GMT -0400)
Sault Ste Marie Municipal / Sanderson Field | | Change Station
CLOSE
Current Station
Aeroporto
Location: Sault Ste Marie,
Altitudine: 715 ft
Stazioni meteo nelle vicinanze

Alt. 715 ft 46.48 °N, 84.36 °W | Updated 15 minutes ago

Overcast
Coperto
79 °F
Sembra 79 °F
N
5
Vento Variabile Vento da ESE

Oggi
Massima -- | Minima -- °F
--% Possibilità di precip.
Ieri
Massima -- | Minima -- °F
Precip. -- in
6:59 AM 8:13 PM
Gobba a levante, 68% visible
Pressione 29.96 in
Visibilità 10.0 miglia
Nuvole Coperto 10000 ft
Punto di rugiada 63 °F
Umidità 58%
Piovosità 0.02 in
Spessore del manto nevoso Non disponibile.
Raggi UV 2 fuori da 12
Polline 10.00 fuori da 12
Qualità dell'aria Non disponibile.
Flu Activity Non disponibile.
METAR KANJ 031855Z AUTO 12004KT 10SM OVC100 26/17 A2997 RMK AO2 SLP145 T02610172
Pressione 29.96 in
Visibilità 10.0 miglia
Nuvole Coperto 10000 ft
Punto di rugiada 63 °F
Umidità 58%
Piovosità 0.02 in
Spessore del manto nevoso Non disponibile.
Raggi UV 2 fuori da 12
Polline 10.00 fuori da 12
Qualità dell'aria Non disponibile.
Flu Activity Non disponibile.
METAR KANJ 031855Z AUTO 12004KT 10SM OVC100 26/17 A2997 RMK AO2 SLP145 T02610172
Nowcast | as of 3:00 PM EDT on September 3, 2015

At 4 PM...partly cloudy. Temperature 79. Southeast winds 8 mph. At 6 PM...partly cloudy. Temperature 78. Southeast winds 6 mph. At 8 PM...partly cloudy. Temperature 75. Southeast winds 5 mph. At 10 PM...partly cloudy. Temperature 70. East winds 5 mph.

×

10-Day Weather Forecast

×

Almanac

Astronomia

Sep. 03, 2015 Alba Tramonto
Ora attuale
Crepuscolo civile
Crepuscolo nautico
Crepuscolo astronomico
Luna
Estensione della luce visibile
Lunghezza del giorno
Tomorrow will be .
, % of the Moon is Illuminated

Gli estremi di oggi

State Highs State Lows

Community

WunderPhotos

Upload Photos

1,852,014 foto caricate!

WunderBlogs® & News

Nearby

Qualità dell'aria

  Qualità dell'aria Indice AQ Inquinante
Not available.

Profondità neve

Stazione Profondità Altitudine

Attività sismica

Città  Distanza Mag. Data & Ora
Minimo Magnitudo Mostrato è 2.5.

Temperature delle acque costiere

Località Temperatura

Stations

Stazioni meteo nelle vicinanze

Ubicazione della stazione Temp. Raffreddamento del vento Punto di rugiada Umidità Vento Precip. Alt. Aggiornato Tipo